sensor_id;sensor_type;location;lat;lon;timestamp;temperature;humidity
18153;DHT22;9202;51.578;7.734;2022-10-16T00:03:44;13.90;99.90
18153;DHT22;9202;51.578;7.734;2022-10-16T00:05:47;13.90;99.90
18153;DHT22;9202;51.578;7.734;2022-10-16T00:07:50;13.90;99.90
18153;DHT22;9202;51.578;7.734;2022-10-16T00:09:52;13.90;99.90
18153;DHT22;9202;51.578;7.734;2022-10-16T00:11:55;13.90;99.90
18153;DHT22;9202;51.578;7.734;2022-10-16T00:13:58;13.90;99.90
18153;DHT22;9202;51.578;7.734;2022-10-16T00:16:01;13.90;99.90
18153;DHT22;9202;51.578;7.734;2022-10-16T00:18:04;13.90;99.90
18153;DHT22;9202;51.578;7.734;2022-10-16T00:20:07;13.90;99.90
18153;DHT22;9202;51.578;7.734;2022-10-16T00:22:10;13.80;99.90
18153;DHT22;9202;51.578;7.734;2022-10-16T00:24:12;13.70;99.90
18153;DHT22;9202;51.578;7.734;2022-10-16T00:26:16;13.70;99.90
18153;DHT22;9202;51.578;7.734;2022-10-16T00:28:19;13.70;99.90
18153;DHT22;9202;51.578;7.734;2022-10-16T00:30:22;13.70;99.90
18153;DHT22;9202;51.578;7.734;2022-10-16T00:32:25;13.70;99.90
18153;DHT22;9202;51.578;7.734;2022-10-16T00:34:28;13.60;99.90
18153;DHT22;9202;51.578;7.734;2022-10-16T00:36:30;13.60;99.90
18153;DHT22;9202;51.578;7.734;2022-10-16T00:38:33;13.70;99.90
18153;DHT22;9202;51.578;7.734;2022-10-16T00:40:36;13.70;99.90
18153;DHT22;9202;51.578;7.734;2022-10-16T00:42:38;13.70;99.90
18153;DHT22;9202;51.578;7.734;2022-10-16T00:44:46;13.70;99.90
18153;DHT22;9202;51.578;7.734;2022-10-16T00:46:49;13.60;99.90
18153;DHT22;9202;51.578;7.734;2022-10-16T00:48:53;13.70;99.90
18153;DHT22;9202;51.578;7.734;2022-10-16T00:50:57;13.60;99.90
18153;DHT22;9202;51.578;7.734;2022-10-16T00:53:00;13.50;99.90
18153;DHT22;9202;51.578;7.734;2022-10-16T00:55:04;13.50;99.90
18153;DHT22;9202;51.578;7.734;2022-10-16T00:57:08;13.50;99.90
18153;DHT22;9202;51.578;7.734;2022-10-16T00:59:11;13.50;99.90
18153;DHT22;9202;51.578;7.734;2022-10-16T01:01:15;13.40;99.90
18153;DHT22;9202;51.578;7.734;2022-10-16T01:03:25;13.40;99.90
18153;DHT22;9202;51.578;7.734;2022-10-16T01:05:30;13.40;99.90
18153;DHT22;9202;51.578;7.734;2022-10-16T01:07:34;13.40;99.90
18153;DHT22;9202;51.578;7.734;2022-10-16T01:09:40;13.40;99.90
18153;DHT22;9202;51.578;7.734;2022-10-16T01:11:45;13.40;99.90
18153;DHT22;9202;51.578;7.734;2022-10-16T01:13:50;13.50;99.90
18153;DHT22;9202;51.578;7.734;2022-10-16T01:15:54;13.50;99.90
18153;DHT22;9202;51.578;7.734;2022-10-16T01:18:00;13.50;99.90
18153;DHT22;9202;51.578;7.734;2022-10-16T01:20:07;13.50;99.90
18153;DHT22;9202;51.578;7.734;2022-10-16T01:22:10;13.50;99.90
18153;DHT22;9202;51.578;7.734;2022-10-16T01:24:15;13.50;99.90
18153;DHT22;9202;51.578;7.734;2022-10-16T01:26:23;13.50;99.90
18153;DHT22;9202;51.578;7.734;2022-10-16T01:28:26;13.50;99.90
18153;DHT22;9202;51.578;7.734;2022-10-16T01:30:30;13.50;99.90
18153;DHT22;9202;51.578;7.734;2022-10-16T01:32:36;13.50;99.90
18153;DHT22;9202;51.578;7.734;2022-10-16T01:34:41;13.40;99.90
18153;DHT22;9202;51.578;7.734;2022-10-16T01:36:45;13.40;99.90
18153;DHT22;9202;51.578;7.734;2022-10-16T01:38:47;13.40;99.90
18153;DHT22;9202;51.578;7.734;2022-10-16T01:40:52;13.40;99.90
18153;DHT22;9202;51.578;7.734;2022-10-16T01:42:58;13.20;99.90
18153;DHT22;9202;51.578;7.734;2022-10-16T01:45:02;13.10;99.90
18153;DHT22;9202;51.578;7.734;2022-10-16T01:47:08;13.20;99.90
18153;DHT22;9202;51.578;7.734;2022-10-16T01:49:11;13.20;99.90
18153;DHT22;9202;51.578;7.734;2022-10-16T01:51:15;13.20;99.90
18153;DHT22;9202;51.578;7.734;2022-10-16T01:53:19;13.20;99.90
18153;DHT22;9202;51.578;7.734;2022-10-16T01:55:25;13.20;99.90
18153;DHT22;9202;51.578;7.734;2022-10-16T01:57:26;13.20;99.90
18153;DHT22;9202;51.578;7.734;2022-10-16T01:59:30;13.20;99.90
18153;DHT22;9202;51.578;7.734;2022-10-16T02:01:34;13.10;99.90
18153;DHT22;9202;51.578;7.734;2022-10-16T02:03:38;13.20;99.90
18153;DHT22;9202;51.578;7.734;2022-10-16T02:05:44;13.20;99.90
18153;DHT22;9202;51.578;7.734;2022-10-16T02:07:47;13.30;99.90
18153;DHT22;9202;51.578;7.734;2022-10-16T02:09:50;13.30;99.90
18153;DHT22;9202;51.578;7.734;2022-10-16T02:11:53;13.30;99.90
18153;DHT22;9202;51.578;7.734;2022-10-16T02:13:58;13.30;99.90
18153;DHT22;9202;51.578;7.734;2022-10-16T02:16:01;13.30;99.90
18153;DHT22;9202;51.578;7.734;2022-10-16T02:18:04;13.40;99.90
18153;DHT22;9202;51.578;7.734;2022-10-16T02:20:07;13.30;99.90
18153;DHT22;9202;51.578;7.734;2022-10-16T02:22:12;13.40;99.90
18153;DHT22;9202;51.578;7.734;2022-10-16T02:24:15;13.40;99.90
18153;DHT22;9202;51.578;7.734;2022-10-16T02:26:21;13.40;99.90
18153;DHT22;9202;51.578;7.734;2022-10-16T02:28:24;13.40;99.90
18153;DHT22;9202;51.578;7.734;2022-10-16T02:30:29;13.40;99.90
18153;DHT22;9202;51.578;7.734;2022-10-16T02:32:32;13.50;99.90
18153;DHT22;9202;51.578;7.734;2022-10-16T02:34:36;13.50;99.90
18153;DHT22;9202;51.578;7.734;2022-10-16T02:36:39;13.50;99.90
18153;DHT22;9202;51.578;7.734;2022-10-16T02:38:43;13.50;99.90
18153;DHT22;9202;51.578;7.734;2022-10-16T02:40:45;13.50;99.90
18153;DHT22;9202;51.578;7.734;2022-10-16T02:42:50;13.50;99.90
18153;DHT22;9202;51.578;7.734;2022-10-16T02:44:52;13.50;99.90
18153;DHT22;9202;51.578;7.734;2022-10-16T02:46:55;13.50;99.90
18153;DHT22;9202;51.578;7.734;2022-10-16T02:48:57;13.50;99.90
18153;DHT22;9202;51.578;7.734;2022-10-16T02:51:00;13.50;99.90
18153;DHT22;9202;51.578;7.734;2022-10-16T02:53:02;13.50;99.90
18153;DHT22;9202;51.578;7.734;2022-10-16T02:55:05;13.50;99.90
18153;DHT22;9202;51.578;7.734;2022-10-16T02:57:08;13.50;99.90
18153;DHT22;9202;51.578;7.734;2022-10-16T02:59:11;13.50;99.90
18153;DHT22;9202;51.578;7.734;2022-10-16T03:01:13;13.50;99.90
18153;DHT22;9202;51.578;7.734;2022-10-16T03:03:18;13.50;99.90
18153;DHT22;9202;51.578;7.734;2022-10-16T03:05:20;13.50;99.90
18153;DHT22;9202;51.578;7.734;2022-10-16T03:07:23;13.60;99.90
18153;DHT22;9202;51.578;7.734;2022-10-16T03:09:26;13.60;99.90
18153;DHT22;9202;51.578;7.734;2022-10-16T03:11:28;13.60;99.90
18153;DHT22;9202;51.578;7.734;2022-10-16T03:13:31;13.60;99.90
18153;DHT22;9202;51.578;7.734;2022-10-16T03:15:33;13.60;99.90
18153;DHT22;9202;51.578;7.734;2022-10-16T03:17:36;13.60;99.90
18153;DHT22;9202;51.578;7.734;2022-10-16T03:19:38;13.70;99.90
18153;DHT22;9202;51.578;7.734;2022-10-16T03:21:41;13.70;99.90
18153;DHT22;9202;51.578;7.734;2022-10-16T03:23:44;13.60;99.90
18153;DHT22;9202;51.578;7.734;2022-10-16T03:25:46;13.60;99.90
18153;DHT22;9202;51.578;7.734;2022-10-16T03:27:49;13.60;99.90
18153;DHT22;9202;51.578;7.734;2022-10-16T03:29:52;13.70;99.90
18153;DHT22;9202;51.578;7.734;2022-10-16T03:31:54;13.60;99.90
18153;DHT22;9202;51.578;7.734;2022-10-16T03:33:57;13.70;99.90
18153;DHT22;9202;51.578;7.734;2022-10-16T03:36:00;13.70;99.90
18153;DHT22;9202;51.578;7.734;2022-10-16T03:38:02;13.70;99.90
18153;DHT22;9202;51.578;7.734;2022-10-16T03:40:06;13.80;99.90
18153;DHT22;9202;51.578;7.734;2022-10-16T03:42:08;13.70;99.90
18153;DHT22;9202;51.578;7.734;2022-10-16T03:44:11;13.70;99.90
18153;DHT22;9202;51.578;7.734;2022-10-16T03:46:14;13.70;99.90
18153;DHT22;9202;51.578;7.734;2022-10-16T03:48:16;13.80;99.90
18153;DHT22;9202;51.578;7.734;2022-10-16T03:50:19;13.80;99.90
18153;DHT22;9202;51.578;7.734;2022-10-16T03:52:21;13.70;99.90
18153;DHT22;9202;51.578;7.734;2022-10-16T03:54:24;13.80;99.90
18153;DHT22;9202;51.578;7.734;2022-10-16T03:56:26;13.70;99.90
18153;DHT22;9202;51.578;7.734;2022-10-16T03:58:29;13.70;99.90
18153;DHT22;9202;51.578;7.734;2022-10-16T04:00:31;13.70;99.90
18153;DHT22;9202;51.578;7.734;2022-10-16T04:02:34;13.80;99.90
18153;DHT22;9202;51.578;7.734;2022-10-16T04:04:36;13.70;99.90
18153;DHT22;9202;51.578;7.734;2022-10-16T04:06:39;13.80;99.90
18153;DHT22;9202;51.578;7.734;2022-10-16T04:08:42;13.70;99.90
18153;DHT22;9202;51.578;7.734;2022-10-16T04:10:45;13.70;99.90
18153;DHT22;9202;51.578;7.734;2022-10-16T04:12:48;13.70;99.90
18153;DHT22;9202;51.578;7.734;2022-10-16T04:14:50;13.70;99.90
18153;DHT22;9202;51.578;7.734;2022-10-16T04:16:53;13.70;99.90
18153;DHT22;9202;51.578;7.734;2022-10-16T04:18:55;13.70;99.90
18153;DHT22;9202;51.578;7.734;2022-10-16T04:21:02;13.70;99.90
18153;DHT22;9202;51.578;7.734;2022-10-16T04:23:04;13.60;99.90
18153;DHT22;9202;51.578;7.734;2022-10-16T04:25:08;13.60;99.90
18153;DHT22;9202;51.578;7.734;2022-10-16T04:27:10;13.70;99.90
18153;DHT22;9202;51.578;7.734;2022-10-16T04:29:13;13.70;99.90
18153;DHT22;9202;51.578;7.734;2022-10-16T04:31:15;13.70;99.90
18153;DHT22;9202;51.578;7.734;2022-10-16T04:33:18;13.50;99.90
18153;DHT22;9202;51.578;7.734;2022-10-16T04:35:21;13.60;99.90
18153;DHT22;9202;51.578;7.734;2022-10-16T04:37:23;13.60;99.90
18153;DHT22;9202;51.578;7.734;2022-10-16T04:39:27;13.50;99.90
18153;DHT22;9202;51.578;7.734;2022-10-16T04:41:30;13.40;99.90
18153;DHT22;9202;51.578;7.734;2022-10-16T04:43:32;13.50;99.90
18153;DHT22;9202;51.578;7.734;2022-10-16T04:45:35;13.50;99.90
18153;DHT22;9202;51.578;7.734;2022-10-16T04:47:37;13.50;99.90
18153;DHT22;9202;51.578;7.734;2022-10-16T04:49:40;13.50;99.90
18153;DHT22;9202;51.578;7.734;2022-10-16T04:51:43;13.50;99.90
18153;DHT22;9202;51.578;7.734;2022-10-16T04:53:45;13.50;99.90
18153;DHT22;9202;51.578;7.734;2022-10-16T04:55:48;13.50;99.90
18153;DHT22;9202;51.578;7.734;2022-10-16T04:57:50;13.60;99.90
18153;DHT22;9202;51.578;7.734;2022-10-16T04:59:53;13.60;99.90
18153;DHT22;9202;51.578;7.734;2022-10-16T05:01:55;13.60;99.90
18153;DHT22;9202;51.578;7.734;2022-10-16T05:03:58;13.60;99.90
18153;DHT22;9202;51.578;7.734;2022-10-16T05:06:00;13.70;99.90
18153;DHT22;9202;51.578;7.734;2022-10-16T05:08:03;13.60;99.90
18153;DHT22;9202;51.578;7.734;2022-10-16T05:10:06;13.60;99.90
18153;DHT22;9202;51.578;7.734;2022-10-16T05:12:09;13.60;99.90
18153;DHT22;9202;51.578;7.734;2022-10-16T05:14:12;13.60;99.90
18153;DHT22;9202;51.578;7.734;2022-10-16T05:16:15;13.60;99.90
18153;DHT22;9202;51.578;7.734;2022-10-16T05:18:17;13.70;99.90
18153;DHT22;9202;51.578;7.734;2022-10-16T05:20:20;13.60;99.90
18153;DHT22;9202;51.578;7.734;2022-10-16T05:22:23;13.60;99.90
18153;DHT22;9202;51.578;7.734;2022-10-16T05:24:25;13.60;99.90
18153;DHT22;9202;51.578;7.734;2022-10-16T05:26:28;13.60;99.90
18153;DHT22;9202;51.578;7.734;2022-10-16T05:28:31;13.60;99.90
18153;DHT22;9202;51.578;7.734;2022-10-16T05:30:33;13.60;99.90
18153;DHT22;9202;51.578;7.734;2022-10-16T05:32:36;13.60;99.90
18153;DHT22;9202;51.578;7.734;2022-10-16T05:34:38;13.60;99.90
18153;DHT22;9202;51.578;7.734;2022-10-16T05:36:41;13.60;99.90
18153;DHT22;9202;51.578;7.734;2022-10-16T05:38:43;13.50;99.90
18153;DHT22;9202;51.578;7.734;2022-10-16T05:40:50;13.50;99.90
18153;DHT22;9202;51.578;7.734;2022-10-16T05:42:55;13.60;99.90
18153;DHT22;9202;51.578;7.734;2022-10-16T05:44:57;13.60;99.90
18153;DHT22;9202;51.578;7.734;2022-10-16T05:47:00;13.60;99.90
18153;DHT22;9202;51.578;7.734;2022-10-16T05:49:02;13.60;99.90
18153;DHT22;9202;51.578;7.734;2022-10-16T05:51:06;13.70;99.90
18153;DHT22;9202;51.578;7.734;2022-10-16T05:53:09;13.60;99.90
18153;DHT22;9202;51.578;7.734;2022-10-16T05:55:11;13.60;99.90
18153;DHT22;9202;51.578;7.734;2022-10-16T05:57:14;13.60;99.90
18153;DHT22;9202;51.578;7.734;2022-10-16T05:59:16;13.60;99.90
18153;DHT22;9202;51.578;7.734;2022-10-16T06:01:19;13.30;99.90
18153;DHT22;9202;51.578;7.734;2022-10-16T06:03:24;13.80;99.90
18153;DHT22;9202;51.578;7.734;2022-10-16T06:05:27;13.70;99.90
18153;DHT22;9202;51.578;7.734;2022-10-16T06:07:33;13.70;99.90
18153;DHT22;9202;51.578;7.734;2022-10-16T06:09:34;13.70;99.90
18153;DHT22;9202;51.578;7.734;2022-10-16T06:11:36;13.80;99.90
18153;DHT22;9202;51.578;7.734;2022-10-16T06:13:39;13.70;99.90
18153;DHT22;9202;51.578;7.734;2022-10-16T06:15:44;13.80;99.90
18153;DHT22;9202;51.578;7.734;2022-10-16T06:17:46;13.80;99.90
18153;DHT22;9202;51.578;7.734;2022-10-16T06:19:49;13.80;99.90
18153;DHT22;9202;51.578;7.734;2022-10-16T06:21:52;13.80;99.90
18153;DHT22;9202;51.578;7.734;2022-10-16T06:23:54;13.80;99.90
18153;DHT22;9202;51.578;7.734;2022-10-16T06:26:04;13.80;99.90
18153;DHT22;9202;51.578;7.734;2022-10-16T06:28:07;13.80;99.90
18153;DHT22;9202;51.578;7.734;2022-10-16T06:30:10;13.90;99.90
18153;DHT22;9202;51.578;7.734;2022-10-16T06:32:12;13.90;99.90
18153;DHT22;9202;51.578;7.734;2022-10-16T06:34:15;13.90;99.90
18153;DHT22;9202;51.578;7.734;2022-10-16T06:36:18;13.90;99.90
18153;DHT22;9202;51.578;7.734;2022-10-16T06:38:20;13.90;99.90
18153;DHT22;9202;51.578;7.734;2022-10-16T06:40:23;13.90;99.90
18153;DHT22;9202;51.578;7.734;2022-10-16T06:42:26;14.00;99.90
18153;DHT22;9202;51.578;7.734;2022-10-16T06:44:29;14.00;99.90
18153;DHT22;9202;51.578;7.734;2022-10-16T06:46:31;14.00;99.90
18153;DHT22;9202;51.578;7.734;2022-10-16T06:48:34;14.00;99.90
18153;DHT22;9202;51.578;7.734;2022-10-16T06:50:37;14.00;99.90
18153;DHT22;9202;51.578;7.734;2022-10-16T06:52:40;14.00;99.90
18153;DHT22;9202;51.578;7.734;2022-10-16T06:54:42;14.00;99.90
18153;DHT22;9202;51.578;7.734;2022-10-16T06:56:44;14.00;99.90
18153;DHT22;9202;51.578;7.734;2022-10-16T06:58:47;14.00;99.90
18153;DHT22;9202;51.578;7.734;2022-10-16T07:00:55;14.10;99.90
18153;DHT22;9202;51.578;7.734;2022-10-16T07:02:57;14.10;99.90
18153;DHT22;9202;51.578;7.734;2022-10-16T07:05:00;14.10;99.90
18153;DHT22;9202;51.578;7.734;2022-10-16T07:07:02;14.20;99.90
18153;DHT22;9202;51.578;7.734;2022-10-16T07:09:09;14.10;99.90
18153;DHT22;9202;51.578;7.734;2022-10-16T07:11:12;14.20;99.90
18153;DHT22;9202;51.578;7.734;2022-10-16T07:13:15;14.20;99.90
18153;DHT22;9202;51.578;7.734;2022-10-16T07:15:18;14.30;99.90
18153;DHT22;9202;51.578;7.734;2022-10-16T07:17:20;14.30;99.90
18153;DHT22;9202;51.578;7.734;2022-10-16T07:19:23;14.30;99.90
18153;DHT22;9202;51.578;7.734;2022-10-16T07:21:29;14.40;99.90
18153;DHT22;9202;51.578;7.734;2022-10-16T07:23:33;14.40;99.90
18153;DHT22;9202;51.578;7.734;2022-10-16T07:25:37;14.50;99.90
18153;DHT22;9202;51.578;7.734;2022-10-16T07:29:57;14.50;99.90
18153;DHT22;9202;51.578;7.734;2022-10-16T07:32:03;14.60;99.90
18153;DHT22;9202;51.578;7.734;2022-10-16T07:34:07;14.70;99.90
18153;DHT22;9202;51.578;7.734;2022-10-16T07:36:10;14.80;99.90
18153;DHT22;9202;51.578;7.734;2022-10-16T07:38:16;14.80;99.90
18153;DHT22;9202;51.578;7.734;2022-10-16T07:40:20;14.80;99.90
18153;DHT22;9202;51.578;7.734;2022-10-16T07:42:24;14.80;99.90
18153;DHT22;9202;51.578;7.734;2022-10-16T07:44:28;14.70;99.90
18153;DHT22;9202;51.578;7.734;2022-10-16T07:46:32;14.80;99.90
18153;DHT22;9202;51.578;7.734;2022-10-16T07:48:36;14.80;99.90
18153;DHT22;9202;51.578;7.734;2022-10-16T07:50:40;14.80;99.90
18153;DHT22;9202;51.578;7.734;2022-10-16T07:52:43;14.70;99.90
18153;DHT22;9202;51.578;7.734;2022-10-16T07:54:47;14.70;99.90
18153;DHT22;9202;51.578;7.734;2022-10-16T07:56:51;14.70;99.90
18153;DHT22;9202;51.578;7.734;2022-10-16T07:58:55;14.70;99.90
18153;DHT22;9202;51.578;7.734;2022-10-16T08:00:59;14.70;99.90
18153;DHT22;9202;51.578;7.734;2022-10-16T08:03:04;14.70;99.90
18153;DHT22;9202;51.578;7.734;2022-10-16T08:05:11;14.70;99.90
18153;DHT22;9202;51.578;7.734;2022-10-16T08:07:14;14.90;99.90
18153;DHT22;9202;51.578;7.734;2022-10-16T08:09:18;14.90;99.90
18153;DHT22;9202;51.578;7.734;2022-10-16T08:11:22;14.90;99.90
18153;DHT22;9202;51.578;7.734;2022-10-16T08:13:26;14.90;99.90
18153;DHT22;9202;51.578;7.734;2022-10-16T08:15:29;14.90;99.90
18153;DHT22;9202;51.578;7.734;2022-10-16T08:17:32;14.90;99.90
18153;DHT22;9202;51.578;7.734;2022-10-16T08:19:36;15.00;99.90
18153;DHT22;9202;51.578;7.734;2022-10-16T08:21:40;15.10;99.90
18153;DHT22;9202;51.578;7.734;2022-10-16T08:23:42;15.10;99.90
18153;DHT22;9202;51.578;7.734;2022-10-16T08:25:46;15.20;99.90
18153;DHT22;9202;51.578;7.734;2022-10-16T08:27:50;15.30;99.90
18153;DHT22;9202;51.578;7.734;2022-10-16T08:29:55;15.40;99.90
18153;DHT22;9202;51.578;7.734;2022-10-16T08:31:59;15.40;99.90
18153;DHT22;9202;51.578;7.734;2022-10-16T08:34:03;15.50;99.90
18153;DHT22;9202;51.578;7.734;2022-10-16T08:36:07;15.60;99.90
18153;DHT22;9202;51.578;7.734;2022-10-16T08:38:10;15.70;99.90
18153;DHT22;9202;51.578;7.734;2022-10-16T08:40:17;15.70;99.90
18153;DHT22;9202;51.578;7.734;2022-10-16T08:42:28;15.80;99.90
18153;DHT22;9202;51.578;7.734;2022-10-16T08:44:35;15.90;99.90
18153;DHT22;9202;51.578;7.734;2022-10-16T08:46:42;16.00;99.90
18153;DHT22;9202;51.578;7.734;2022-10-16T08:48:49;16.10;99.90
18153;DHT22;9202;51.578;7.734;2022-10-16T08:50:53;16.20;99.90
18153;DHT22;9202;51.578;7.734;2022-10-16T08:52:58;16.20;99.90
18153;DHT22;9202;51.578;7.734;2022-10-16T08:55:02;16.20;99.90
18153;DHT22;9202;51.578;7.734;2022-10-16T08:57:07;16.40;99.90
18153;DHT22;9202;51.578;7.734;2022-10-16T08:59:11;16.40;99.90
18153;DHT22;9202;51.578;7.734;2022-10-16T09:01:16;16.40;99.90
18153;DHT22;9202;51.578;7.734;2022-10-16T09:03:23;16.40;99.90
18153;DHT22;9202;51.578;7.734;2022-10-16T09:05:31;16.50;99.90
18153;DHT22;9202;51.578;7.734;2022-10-16T09:07:35;16.50;99.90
18153;DHT22;9202;51.578;7.734;2022-10-16T09:09:44;16.50;99.90
18153;DHT22;9202;51.578;7.734;2022-10-16T09:11:49;16.60;99.90
18153;DHT22;9202;51.578;7.734;2022-10-16T09:13:54;16.70;99.90
18153;DHT22;9202;51.578;7.734;2022-10-16T09:16:00;16.70;99.90
18153;DHT22;9202;51.578;7.734;2022-10-16T09:18:05;16.80;99.90
18153;DHT22;9202;51.578;7.734;2022-10-16T09:20:15;16.80;99.90
18153;DHT22;9202;51.578;7.734;2022-10-16T09:22:18;16.90;99.90
18153;DHT22;9202;51.578;7.734;2022-10-16T09:24:23;16.90;99.90
18153;DHT22;9202;51.578;7.734;2022-10-16T09:26:29;17.00;99.90
18153;DHT22;9202;51.578;7.734;2022-10-16T09:28:31;17.00;99.90
18153;DHT22;9202;51.578;7.734;2022-10-16T09:30:34;17.00;99.90
18153;DHT22;9202;51.578;7.734;2022-10-16T09:32:37;17.10;99.90
18153;DHT22;9202;51.578;7.734;2022-10-16T09:34:42;17.20;99.90
18153;DHT22;9202;51.578;7.734;2022-10-16T09:36:45;17.50;99.90
18153;DHT22;9202;51.578;7.734;2022-10-16T09:38:48;17.70;99.90
18153;DHT22;9202;51.578;7.734;2022-10-16T09:40:51;17.70;99.90
18153;DHT22;9202;51.578;7.734;2022-10-16T09:42:57;17.80;99.90
18153;DHT22;9202;51.578;7.734;2022-10-16T09:45:01;18.00;99.90
18153;DHT22;9202;51.578;7.734;2022-10-16T09:47:05;18.00;99.90
18153;DHT22;9202;51.578;7.734;2022-10-16T09:49:18;18.00;99.90
18153;DHT22;9202;51.578;7.734;2022-10-16T09:51:22;18.00;99.90
18153;DHT22;9202;51.578;7.734;2022-10-16T09:53:26;17.90;99.90
18153;DHT22;9202;51.578;7.734;2022-10-16T09:55:29;17.90;99.90
18153;DHT22;9202;51.578;7.734;2022-10-16T09:57:33;18.00;99.90
18153;DHT22;9202;51.578;7.734;2022-10-16T09:59:45;18.00;99.90
18153;DHT22;9202;51.578;7.734;2022-10-16T10:01:41;17.90;99.90
18153;DHT22;9202;51.578;7.734;2022-10-16T10:03:45;18.00;99.90
18153;DHT22;9202;51.578;7.734;2022-10-16T10:05:48;18.10;99.90
18153;DHT22;9202;51.578;7.734;2022-10-16T10:07:54;18.30;99.90
18153;DHT22;9202;51.578;7.734;2022-10-16T10:09:58;18.50;99.90
18153;DHT22;9202;51.578;7.734;2022-10-16T10:12:01;18.50;99.90
18153;DHT22;9202;51.578;7.734;2022-10-16T10:14:04;18.40;99.90
18153;DHT22;9202;51.578;7.734;2022-10-16T10:16:07;18.50;99.90
18153;DHT22;9202;51.578;7.734;2022-10-16T10:18:16;18.50;99.90
18153;DHT22;9202;51.578;7.734;2022-10-16T10:20:23;18.60;99.90
18153;DHT22;9202;51.578;7.734;2022-10-16T10:22:28;18.60;99.90
18153;DHT22;9202;51.578;7.734;2022-10-16T10:24:31;18.60;99.90
18153;DHT22;9202;51.578;7.734;2022-10-16T10:26:34;18.80;99.90
18153;DHT22;9202;51.578;7.734;2022-10-16T10:28:44;18.80;99.90
18153;DHT22;9202;51.578;7.734;2022-10-16T10:30:49;18.70;99.90
18153;DHT22;9202;51.578;7.734;2022-10-16T10:32:56;18.80;99.90
18153;DHT22;9202;51.578;7.734;2022-10-16T10:35:06;19.10;99.90
18153;DHT22;9202;51.578;7.734;2022-10-16T10:37:11;19.00;99.90
18153;DHT22;9202;51.578;7.734;2022-10-16T10:39:15;19.10;99.90
18153;DHT22;9202;51.578;7.734;2022-10-16T10:41:26;19.00;99.90
18153;DHT22;9202;51.578;7.734;2022-10-16T10:43:37;18.90;99.90
18153;DHT22;9202;51.578;7.734;2022-10-16T10:45:39;18.70;99.90
18153;DHT22;9202;51.578;7.734;2022-10-16T10:47:46;19.00;99.90
18153;DHT22;9202;51.578;7.734;2022-10-16T10:49:50;19.10;99.90
18153;DHT22;9202;51.578;7.734;2022-10-16T10:51:55;19.30;99.90
18153;DHT22;9202;51.578;7.734;2022-10-16T10:54:02;19.30;99.90
18153;DHT22;9202;51.578;7.734;2022-10-16T10:56:07;19.30;99.90
18153;DHT22;9202;51.578;7.734;2022-10-16T10:58:15;19.40;99.90
18153;DHT22;9202;51.578;7.734;2022-10-16T11:00:20;19.50;99.90
18153;DHT22;9202;51.578;7.734;2022-10-16T11:02:24;19.50;99.90
18153;DHT22;9202;51.578;7.734;2022-10-16T11:04:32;19.50;99.90
18153;DHT22;9202;51.578;7.734;2022-10-16T11:06:35;19.60;99.90
18153;DHT22;9202;51.578;7.734;2022-10-16T11:08:40;19.70;99.90
18153;DHT22;9202;51.578;7.734;2022-10-16T11:10:45;19.60;99.90
18153;DHT22;9202;51.578;7.734;2022-10-16T11:12:50;19.50;99.90
18153;DHT22;9202;51.578;7.734;2022-10-16T11:14:56;19.70;99.90
18153;DHT22;9202;51.578;7.734;2022-10-16T11:17:01;19.50;99.90
18153;DHT22;9202;51.578;7.734;2022-10-16T11:19:08;19.60;99.90
18153;DHT22;9202;51.578;7.734;2022-10-16T11:21:10;19.60;99.90
18153;DHT22;9202;51.578;7.734;2022-10-16T11:23:16;19.60;99.90
18153;DHT22;9202;51.578;7.734;2022-10-16T11:25:19;19.70;99.90
18153;DHT22;9202;51.578;7.734;2022-10-16T11:27:27;19.60;99.90
18153;DHT22;9202;51.578;7.734;2022-10-16T11:29:29;19.50;99.90
18153;DHT22;9202;51.578;7.734;2022-10-16T11:31:34;19.30;99.90
18153;DHT22;9202;51.578;7.734;2022-10-16T11:33:37;19.30;99.90
18153;DHT22;9202;51.578;7.734;2022-10-16T11:35:43;19.30;99.90
18153;DHT22;9202;51.578;7.734;2022-10-16T11:37:46;19.30;99.90
18153;DHT22;9202;51.578;7.734;2022-10-16T11:39:57;19.50;99.90
18153;DHT22;9202;51.578;7.734;2022-10-16T11:42:10;19.50;99.90
18153;DHT22;9202;51.578;7.734;2022-10-16T11:44:32;19.50;99.90
18153;DHT22;9202;51.578;7.734;2022-10-16T11:46:35;19.40;99.90
18153;DHT22;9202;51.578;7.734;2022-10-16T11:48:43;19.50;99.90
18153;DHT22;9202;51.578;7.734;2022-10-16T11:50:48;19.60;99.90
18153;DHT22;9202;51.578;7.734;2022-10-16T11:52:55;19.50;99.90
18153;DHT22;9202;51.578;7.734;2022-10-16T11:55:01;19.50;99.90
18153;DHT22;9202;51.578;7.734;2022-10-16T11:57:07;19.60;99.90
18153;DHT22;9202;51.578;7.734;2022-10-16T11:59:11;19.70;99.90
18153;DHT22;9202;51.578;7.734;2022-10-16T12:01:17;19.60;99.90
18153;DHT22;9202;51.578;7.734;2022-10-16T12:03:21;19.60;99.90
18153;DHT22;9202;51.578;7.734;2022-10-16T12:05:27;19.60;99.90
18153;DHT22;9202;51.578;7.734;2022-10-16T12:07:32;19.50;99.90
18153;DHT22;9202;51.578;7.734;2022-10-16T12:09:36;19.50;99.90
18153;DHT22;9202;51.578;7.734;2022-10-16T12:11:40;19.40;99.90
18153;DHT22;9202;51.578;7.734;2022-10-16T12:13:42;19.30;99.90
18153;DHT22;9202;51.578;7.734;2022-10-16T12:15:45;19.10;99.90
18153;DHT22;9202;51.578;7.734;2022-10-16T12:17:49;19.10;99.90
18153;DHT22;9202;51.578;7.734;2022-10-16T12:19:59;19.10;99.90
18153;DHT22;9202;51.578;7.734;2022-10-16T12:22:02;19.00;99.90
18153;DHT22;9202;51.578;7.734;2022-10-16T12:24:05;19.10;99.90
18153;DHT22;9202;51.578;7.734;2022-10-16T12:26:09;19.10;99.90
18153;DHT22;9202;51.578;7.734;2022-10-16T12:28:18;19.20;99.90
18153;DHT22;9202;51.578;7.734;2022-10-16T12:30:23;19.30;99.90
18153;DHT22;9202;51.578;7.734;2022-10-16T12:32:28;19.40;99.90
18153;DHT22;9202;51.578;7.734;2022-10-16T12:34:36;19.50;99.90
18153;DHT22;9202;51.578;7.734;2022-10-16T12:36:39;19.50;99.90
18153;DHT22;9202;51.578;7.734;2022-10-16T12:38:46;19.60;99.90
18153;DHT22;9202;51.578;7.734;2022-10-16T12:40:55;19.60;99.90
18153;DHT22;9202;51.578;7.734;2022-10-16T12:43:10;19.80;99.90
18153;DHT22;9202;51.578;7.734;2022-10-16T12:45:21;19.90;99.90
18153;DHT22;9202;51.578;7.734;2022-10-16T12:47:22;19.80;99.90
18153;DHT22;9202;51.578;7.734;2022-10-16T12:49:30;19.70;99.90
18153;DHT22;9202;51.578;7.734;2022-10-16T12:51:34;19.70;99.90
18153;DHT22;9202;51.578;7.734;2022-10-16T12:53:37;19.70;99.90
18153;DHT22;9202;51.578;7.734;2022-10-16T12:55:42;19.70;99.90
18153;DHT22;9202;51.578;7.734;2022-10-16T12:57:49;19.70;99.90
18153;DHT22;9202;51.578;7.734;2022-10-16T12:59:53;19.80;99.90
18153;DHT22;9202;51.578;7.734;2022-10-16T13:02:06;19.90;99.90
18153;DHT22;9202;51.578;7.734;2022-10-16T13:04:29;19.80;99.90
18153;DHT22;9202;51.578;7.734;2022-10-16T13:06:36;19.70;99.90
18153;DHT22;9202;51.578;7.734;2022-10-16T13:08:43;19.60;99.90
18153;DHT22;9202;51.578;7.734;2022-10-16T13:10:50;19.60;99.90
18153;DHT22;9202;51.578;7.734;2022-10-16T13:12:56;19.60;99.90
18153;DHT22;9202;51.578;7.734;2022-10-16T13:15:03;19.60;99.90
18153;DHT22;9202;51.578;7.734;2022-10-16T13:17:07;19.50;99.90
18153;DHT22;9202;51.578;7.734;2022-10-16T13:19:13;19.40;99.90
18153;DHT22;9202;51.578;7.734;2022-10-16T13:21:21;19.40;99.90